createdAt,value
2023-05-20T00:01:44.766Z,4.32
2023-05-20T00:04:12.208Z,4.53
2023-05-20T00:06:39.672Z,4.45
2023-05-20T00:09:07.040Z,6.22
2023-05-20T00:11:34.222Z,3.60
2023-05-20T00:14:01.436Z,5.50
2023-05-20T00:16:28.696Z,5.75
2023-05-20T00:18:56.976Z,5.65
2023-05-20T00:21:24.211Z,6.35
2023-05-20T00:23:51.770Z,5.88
2023-05-20T00:26:21.441Z,6.70
2023-05-20T00:28:54.296Z,5.78
2023-05-20T00:31:21.960Z,5.93
2023-05-20T00:33:49.277Z,5.13
2023-05-20T00:36:16.445Z,6.28
2023-05-20T00:38:43.707Z,5.28
2023-05-20T00:41:10.991Z,5.63
2023-05-20T00:43:38.140Z,6.63
2023-05-20T00:46:05.654Z,4.88
2023-05-20T00:48:41.295Z,5.60
2023-05-20T00:51:08.832Z,5.70
2023-05-20T00:53:36.896Z,5.22
2023-05-20T00:56:05.841Z,4.68
2023-05-20T00:58:33.166Z,5.40
2023-05-20T01:01:00.457Z,5.15
2023-05-20T01:03:28.558Z,4.95
2023-05-20T01:05:56.088Z,4.40
2023-05-20T01:08:25.914Z,5.72
2023-05-20T01:11:17.916Z,4.50
2023-05-20T01:13:54.886Z,4.78
2023-05-20T01:16:24.592Z,4.97
2023-05-20T01:18:55.469Z,4.18
2023-05-20T01:21:23.241Z,5.45
2023-05-20T01:23:50.453Z,4.80
2023-05-20T01:26:19.106Z,6.30
2023-05-20T01:28:46.814Z,4.80
2023-05-20T01:31:37.509Z,4.50
2023-05-20T01:34:05.636Z,5.90
2023-05-20T01:36:33.672Z,6.13
2023-05-20T01:39:03.147Z,4.97
2023-05-20T01:41:30.899Z,4.97
2023-05-20T01:43:58.930Z,5.20
2023-05-20T01:46:26.401Z,4.85
2023-05-20T01:48:53.670Z,5.45
2023-05-20T01:51:21.011Z,6.95
2023-05-20T01:53:48.263Z,5.55
2023-05-20T01:56:15.609Z,6.03
2023-05-20T01:58:42.775Z,6.50
2023-05-20T02:01:10.022Z,5.20
2023-05-20T02:03:37.294Z,4.88
2023-05-20T02:06:04.691Z,5.60
2023-05-20T02:08:31.998Z,4.78
2023-05-20T02:11:00.212Z,6.35
2023-05-20T02:13:28.217Z,6.25
2023-05-20T02:15:55.393Z,7.65
2023-05-20T02:18:26.621Z,6.22
2023-05-20T02:20:54.024Z,5.40
2023-05-20T02:23:21.438Z,5.38
2023-05-20T02:25:48.632Z,6.65
2023-05-20T02:28:16.476Z,5.45
2023-05-20T02:30:43.651Z,6.75
2023-05-20T02:33:10.837Z,6.13
2023-05-20T02:35:38.218Z,5.28
2023-05-20T02:38:05.899Z,6.00
2023-05-20T02:40:33.148Z,6.15
2023-05-20T02:43:03.982Z,4.90
2023-05-20T02:45:31.318Z,6.47
2023-05-20T02:47:58.505Z,4.68
2023-05-20T02:50:26.073Z,4.90
2023-05-20T02:52:53.363Z,5.80
2023-05-20T02:55:21.399Z,4.72
2023-05-20T02:57:48.746Z,5.05
2023-05-20T03:00:16.588Z,5.30
2023-05-20T03:02:43.727Z,4.28
2023-05-20T03:05:11.103Z,4.95
2023-05-20T03:07:38.634Z,4.75
2023-05-20T03:10:08.068Z,4.85
2023-05-20T03:12:35.210Z,4.95
2023-05-20T03:15:02.412Z,4.20
2023-05-20T03:17:29.727Z,5.03
2023-05-20T03:19:57.588Z,5.07
2023-05-20T03:22:25.474Z,5.82
2023-05-20T03:24:53.040Z,4.45
2023-05-20T03:27:21.493Z,5.35
2023-05-20T03:29:48.949Z,4.53
2023-05-20T03:32:17.539Z,5.72
2023-05-20T03:34:44.830Z,4.90
2023-05-20T03:37:12.081Z,5.32
2023-05-20T03:39:39.393Z,5.85
2023-05-20T03:42:06.822Z,5.75
2023-05-20T03:44:35.175Z,5.90
2023-05-20T03:47:03.257Z,5.72
2023-05-20T03:49:31.036Z,7.05
2023-05-20T03:51:58.385Z,7.00
2023-05-20T03:54:25.736Z,5.72
2023-05-20T03:56:53.370Z,6.80
2023-05-20T03:59:22.433Z,6.78
2023-05-20T04:01:49.683Z,6.88
2023-05-20T04:04:16.936Z,6.57
2023-05-20T04:06:44.100Z,6.75
2023-05-20T04:09:12.329Z,7.07
2023-05-20T04:11:39.710Z,8.50
2023-05-20T04:14:06.953Z,8.57
2023-05-20T04:16:34.393Z,8.93
2023-05-20T04:19:02.831Z,8.55
2023-05-20T04:21:31.508Z,6.93
2023-05-20T04:24:02.579Z,8.63
2023-05-20T04:26:29.998Z,8.73
2023-05-20T04:28:59.176Z,9.57
2023-05-20T04:31:27.510Z,9.73
2023-05-20T04:33:54.965Z,7.45
2023-05-20T04:36:22.706Z,8.35
2023-05-20T04:38:50.289Z,7.40
2023-05-20T04:41:17.502Z,8.45
2023-05-20T04:43:46.002Z,7.63
2023-05-20T04:46:14.375Z,7.45
2023-05-20T04:48:45.804Z,8.73
2023-05-20T04:51:13.780Z,7.63
2023-05-20T04:53:40.948Z,9.13
2023-05-20T04:56:08.297Z,7.25
2023-05-20T04:58:35.585Z,9.05
2023-05-20T05:01:03.381Z,8.82
2023-05-20T05:03:31.370Z,8.80
2023-05-20T05:05:59.269Z,10.23
2023-05-20T05:08:27.024Z,10.38
2023-05-20T05:10:54.296Z,10.48
2023-05-20T05:13:21.479Z,8.18
2023-05-20T05:15:49.231Z,9.23
2023-05-20T05:18:18.654Z,9.88
2023-05-20T05:20:46.513Z,8.43
2023-05-20T05:23:13.711Z,8.68
2023-05-20T05:25:40.859Z,7.82
2023-05-20T05:28:08.059Z,6.70
2023-05-20T05:30:35.679Z,9.90
2023-05-20T05:33:02.968Z,7.70
2023-05-20T05:35:30.398Z,9.88
2023-05-20T05:37:57.679Z,9.27
2023-05-20T05:40:24.964Z,7.38
2023-05-20T05:42:52.293Z,8.75
2023-05-20T05:45:19.598Z,8.55
2023-05-20T05:47:47.242Z,9.10
2023-05-20T05:50:15.094Z,8.02
2023-05-20T05:52:42.837Z,8.70
2023-05-20T05:55:12.096Z,10.25
2023-05-20T05:57:39.772Z,9.82
2023-05-20T06:00:08.153Z,8.50
2023-05-20T06:02:46.125Z,10.18
2023-05-20T06:05:21.495Z,9.50
2023-05-20T06:07:49.060Z,9.38
2023-05-20T06:10:16.350Z,10.68
2023-05-20T06:12:43.503Z,10.50
2023-05-20T06:15:11.290Z,10.80
2023-05-20T06:17:39.192Z,9.35
2023-05-20T06:20:07.647Z,8.40
2023-05-20T06:22:35.702Z,9.65
2023-05-20T06:25:03.871Z,8.70
2023-05-20T06:27:33.514Z,7.32
2023-05-20T06:30:00.968Z,9.57
2023-05-20T06:32:29.919Z,9.13
2023-05-20T06:34:58.017Z,9.20
2023-05-20T06:37:25.315Z,8.85
2023-05-20T06:39:54.080Z,9.20
2023-05-20T06:42:21.717Z,9.63
2023-05-20T06:45:02.828Z,10.05
2023-05-20T06:48:00.520Z,8.93
2023-05-20T06:50:28.591Z,9.45
2023-05-20T06:52:55.695Z,10.50
2023-05-20T06:55:22.859Z,9.35
2023-05-20T06:57:50.440Z,7.68
2023-05-20T07:00:18.747Z,9.27
2023-05-20T07:02:46.301Z,9.93
2023-05-20T07:05:14.950Z,11.15
2023-05-20T07:07:42.158Z,9.05
2023-05-20T07:10:10.135Z,10.52
2023-05-20T07:12:37.426Z,9.55
2023-05-20T07:15:05.510Z,8.52
2023-05-20T07:17:33.924Z,9.50
2023-05-20T07:20:01.332Z,8.57
2023-05-20T07:22:30.331Z,8.90
2023-05-20T07:25:14.373Z,9.65
2023-05-20T07:27:41.594Z,8.95
2023-05-20T07:30:09.094Z,8.00
2023-05-20T07:32:37.647Z,8.93
2023-05-20T07:35:06.659Z,10.20
2023-05-20T07:37:33.889Z,9.02
2023-05-20T07:40:02.421Z,8.25
2023-05-20T07:42:31.311Z,9.70
2023-05-20T07:45:01.124Z,9.30
2023-05-20T07:47:29.319Z,9.43
2023-05-20T07:49:56.491Z,9.25
2023-05-20T07:52:24.186Z,9.10
2023-05-20T07:54:51.351Z,9.13
2023-05-20T07:57:18.575Z,8.35
2023-05-20T07:59:45.895Z,9.65
2023-05-20T08:02:13.493Z,10.23
2023-05-20T08:04:41.649Z,8.30
2023-05-20T08:07:09.083Z,8.32
2023-05-20T08:09:50.271Z,8.55
2023-05-20T08:12:19.949Z,8.52
2023-05-20T08:14:47.595Z,7.70
2023-05-20T08:17:15.058Z,8.00
2023-05-20T08:19:42.292Z,9.57
2023-05-20T08:22:09.474Z,9.18
2023-05-20T08:24:36.758Z,9.25
2023-05-20T08:27:05.240Z,9.90
2023-05-20T08:29:33.409Z,9.20
2023-05-20T08:32:01.028Z,9.80
2023-05-20T08:34:28.937Z,8.43
2023-05-20T08:36:57.876Z,9.25
2023-05-20T08:39:27.385Z,9.32
2023-05-20T08:41:57.976Z,9.82
2023-05-20T08:44:27.478Z,10.52
2023-05-20T08:46:56.817Z,9.82
2023-05-20T08:49:24.255Z,8.95
2023-05-20T08:51:51.648Z,10.65
2023-05-20T08:54:21.061Z,10.23
2023-05-20T08:56:48.395Z,8.90
2023-05-20T08:59:17.546Z,9.23
2023-05-20T09:01:44.912Z,8.20
2023-05-20T09:04:12.663Z,10.15
2023-05-20T09:06:44.721Z,9.20
2023-05-20T09:09:15.752Z,9.15
2023-05-20T09:11:43.552Z,8.95
2023-05-20T09:14:10.761Z,9.43
2023-05-20T09:16:41.358Z,9.85
2023-05-20T09:19:10.235Z,7.57
2023-05-20T09:21:39.137Z,8.88
2023-05-20T09:24:06.719Z,7.53
2023-05-20T09:26:34.148Z,8.77
2023-05-20T09:29:01.418Z,8.57
2023-05-20T09:31:30.933Z,7.80
2023-05-20T09:33:58.135Z,7.97
2023-05-20T09:36:29.027Z,7.90
2023-05-20T09:39:03.341Z,7.60
2023-05-20T09:41:45.108Z,7.57
2023-05-20T09:44:13.138Z,7.70
2023-05-20T09:46:41.456Z,5.88
2023-05-20T09:49:10.132Z,6.35
2023-05-20T09:51:37.612Z,6.03
2023-05-20T09:54:05.567Z,6.57
2023-05-20T09:56:34.794Z,7.10
2023-05-20T09:59:05.348Z,5.85
2023-05-20T10:01:32.773Z,5.45
2023-05-20T10:04:01.336Z,6.05
2023-05-20T10:06:56.449Z,4.53
2023-05-20T10:09:37.245Z,4.15
2023-05-20T10:12:23.337Z,4.20
2023-05-20T10:14:59.814Z,4.88
2023-05-20T10:17:40.773Z,5.72
2023-05-20T10:20:14.131Z,3.95
2023-05-20T10:22:41.438Z,4.30
2023-05-20T10:25:28.365Z,3.92
2023-05-20T10:28:29.540Z,3.95
2023-05-20T10:30:57.719Z,4.75
2023-05-20T10:33:27.109Z,3.85
2023-05-20T10:35:58.049Z,4.13
2023-05-20T10:38:25.609Z,3.67
2023-05-20T10:40:53.317Z,4.03
2023-05-20T10:43:30.523Z,3.83
2023-05-20T10:46:00.228Z,3.78
2023-05-20T10:48:31.772Z,3.55
2023-05-20T10:51:04.066Z,3.20
2023-05-20T10:56:06.842Z,3.85
2023-05-20T10:58:39.265Z,3.60
2023-05-20T11:01:06.845Z,3.22
2023-05-20T11:03:36.377Z,4.15
2023-05-20T11:06:16.198Z,4.47
2023-05-20T11:08:46.133Z,3.37
2023-05-20T11:11:15.055Z,4.28
2023-05-20T11:13:42.281Z,4.47
2023-05-20T11:16:09.721Z,4.70
2023-05-20T11:18:37.123Z,3.40
2023-05-20T11:21:04.381Z,3.75
2023-05-20T11:23:31.992Z,2.90
2023-05-20T11:25:59.424Z,3.80
2023-05-20T11:28:26.743Z,3.20
2023-05-20T11:30:54.088Z,3.38
2023-05-20T11:33:21.543Z,3.80
2023-05-20T11:35:51.984Z,3.83
2023-05-20T11:38:20.813Z,3.22
2023-05-20T11:40:55.517Z,3.60
2023-05-20T11:43:24.275Z,3.30
2023-05-20T11:45:59.980Z,3.30
2023-05-20T11:48:27.599Z,3.03
2023-05-20T11:50:55.718Z,4.63
2023-05-20T11:53:24.894Z,3.45
2023-05-20T11:55:56.148Z,4.15
2023-05-20T11:58:28.148Z,3.45
2023-05-20T12:01:02.380Z,3.00
2023-05-20T12:03:37.075Z,2.78
2023-05-20T12:06:04.802Z,2.80
2023-05-20T12:08:31.982Z,3.17
2023-05-20T12:10:59.125Z,4.55
2023-05-20T12:13:26.560Z,3.10
2023-05-20T12:15:53.826Z,3.67
2023-05-20T12:18:21.391Z,3.20
2023-05-20T12:20:48.617Z,2.03
2023-05-20T12:23:15.825Z,2.78
2023-05-20T12:25:43.087Z,2.50
2023-05-20T12:28:10.200Z,3.08
2023-05-20T12:30:37.792Z,3.40
2023-05-20T12:33:05.286Z,3.55
2023-05-20T12:35:43.066Z,2.70
2023-05-20T12:38:10.672Z,2.30
2023-05-20T12:40:38.599Z,2.97
2023-05-20T12:43:06.603Z,2.75
2023-05-20T12:45:33.789Z,3.72
2023-05-20T12:48:01.543Z,3.22
2023-05-20T12:50:28.799Z,2.70
2023-05-20T12:52:56.182Z,2.90
2023-05-20T12:55:23.397Z,2.90
2023-05-20T12:57:50.601Z,2.78
2023-05-20T13:00:17.998Z,3.00
2023-05-20T13:02:45.573Z,3.15
2023-05-20T13:05:13.398Z,3.15
2023-05-20T13:07:40.848Z,3.28
2023-05-20T13:10:08.645Z,3.75
2023-05-20T13:12:35.974Z,2.80
2023-05-20T13:15:04.350Z,2.55
2023-05-20T13:17:32.164Z,2.72
2023-05-20T13:19:59.455Z,2.10
2023-05-20T13:22:26.874Z,3.50
2023-05-20T13:24:54.131Z,3.08
2023-05-20T13:27:21.442Z,2.75
2023-05-20T13:29:48.641Z,2.30
2023-05-20T13:32:15.876Z,2.30
2023-05-20T13:34:43.064Z,2.72
2023-05-20T13:37:10.251Z,2.55
2023-05-20T13:39:37.710Z,3.17
2023-05-20T13:42:05.248Z,3.15
2023-05-20T13:44:32.881Z,2.95
2023-05-20T13:47:00.637Z,2.67
2023-05-20T13:49:27.787Z,2.13
2023-05-20T13:51:54.957Z,2.50
2023-05-20T13:54:22.235Z,2.10
2023-05-20T13:56:49.747Z,2.60
2023-05-20T13:59:17.115Z,2.70
2023-05-20T14:01:45.666Z,2.10
2023-05-20T14:04:13.369Z,2.05
2023-05-20T14:06:40.939Z,2.40
2023-05-20T14:09:09.379Z,1.95
2023-05-20T14:11:36.886Z,2.28
2023-05-20T14:14:04.228Z,2.17
2023-05-20T14:16:32.505Z,2.08
2023-05-20T14:19:00.026Z,2.42
2023-05-20T14:21:27.346Z,2.35
2023-05-20T14:23:54.458Z,2.03
2023-05-20T14:26:22.014Z,2.55
2023-05-20T14:28:49.455Z,2.40
2023-05-20T14:31:17.172Z,1.90
2023-05-20T14:33:44.331Z,2.80
2023-05-20T14:36:11.950Z,2.03
2023-05-20T14:38:39.126Z,2.35
2023-05-20T14:41:06.336Z,2.45
2023-05-20T14:43:33.691Z,2.60
2023-05-20T14:46:02.276Z,3.22
2023-05-20T14:48:29.602Z,2.30
2023-05-20T14:50:56.909Z,2.25
2023-05-20T14:53:24.232Z,2.78
2023-05-20T14:55:51.439Z,2.58
2023-05-20T14:58:18.638Z,1.90
2023-05-20T15:00:46.003Z,2.53
2023-05-20T15:03:13.415Z,2.10
2023-05-20T15:05:42.252Z,2.05
2023-05-20T15:08:09.735Z,2.42
2023-05-20T15:10:37.058Z,2.13
2023-05-20T15:13:04.476Z,1.98
2023-05-20T15:15:32.101Z,2.15
2023-05-20T15:17:59.413Z,2.03
2023-05-20T15:20:26.718Z,2.10
2023-05-20T15:22:54.328Z,2.03
2023-05-20T15:25:21.549Z,3.17
2023-05-20T15:27:48.699Z,2.33
2023-05-20T15:30:16.086Z,2.15
2023-05-20T15:32:43.386Z,2.35
2023-05-20T15:35:10.712Z,2.22
2023-05-20T15:37:37.901Z,2.72
2023-05-20T15:40:05.857Z,1.88
2023-05-20T15:42:33.015Z,2.17
2023-05-20T15:45:00.212Z,2.67
2023-05-20T15:47:27.378Z,1.88
2023-05-20T15:49:54.684Z,1.80
2023-05-20T15:52:21.947Z,2.28
2023-05-20T15:54:49.105Z,2.40
2023-05-20T15:57:16.886Z,2.85
2023-05-20T15:59:44.314Z,1.95
2023-05-20T16:02:11.561Z,2.08
2023-05-20T16:04:38.782Z,2.05
2023-05-20T16:07:06.092Z,2.22
2023-05-20T16:09:33.243Z,2.10
2023-05-20T16:12:00.483Z,2.67
2023-05-20T16:14:27.734Z,3.17
2023-05-20T16:16:54.909Z,3.55
2023-05-20T16:19:22.212Z,2.40
2023-05-20T16:21:49.585Z,2.28
2023-05-20T16:24:16.845Z,1.92
2023-05-20T16:26:44.085Z,2.05
2023-05-20T16:29:11.297Z,2.35
2023-05-20T16:31:38.551Z,1.83
2023-05-20T16:34:06.650Z,2.75
2023-05-20T16:36:33.895Z,3.10
2023-05-20T16:39:01.417Z,2.55
2023-05-20T16:41:28.795Z,2.85
2023-05-20T16:43:56.045Z,3.10
2023-05-20T16:46:23.268Z,2.50
2023-05-20T16:48:50.845Z,2.15
2023-05-20T16:51:18.051Z,3.20
2023-05-20T16:53:45.261Z,2.72
2023-05-20T16:56:12.472Z,2.20
2023-05-20T16:58:39.884Z,2.15
2023-05-20T17:01:08.349Z,2.75
2023-05-20T17:03:36.409Z,3.00
2023-05-20T17:06:03.676Z,2.55
2023-05-20T17:08:31.243Z,1.70
2023-05-20T17:10:59.764Z,2.75
2023-05-20T17:13:26.919Z,2.78
2023-05-20T17:15:54.240Z,2.92
2023-05-20T17:18:21.455Z,2.67
2023-05-20T17:20:48.623Z,2.40
2023-05-20T17:23:16.040Z,2.95
2023-05-20T17:25:43.443Z,3.17
2023-05-20T17:28:10.876Z,2.85
2023-05-20T17:30:38.031Z,2.25
2023-05-20T17:33:05.475Z,2.20
2023-05-20T17:35:32.809Z,2.10
2023-05-20T17:38:00.203Z,2.05
2023-05-20T17:40:27.332Z,2.13
2023-05-20T17:42:54.708Z,2.03
2023-05-20T17:45:21.990Z,1.70
2023-05-20T17:47:49.340Z,2.25
2023-05-20T17:50:17.196Z,2.63
2023-05-20T17:52:44.396Z,2.95
2023-05-20T17:55:12.984Z,2.72
2023-05-20T17:57:40.151Z,2.67
2023-05-20T18:00:09.384Z,2.60
2023-05-20T18:02:38.560Z,2.03
2023-05-20T18:05:06.701Z,2.15
2023-05-20T18:07:33.997Z,2.13
2023-05-20T18:10:01.216Z,2.08
2023-05-20T18:12:28.383Z,2.35
2023-05-20T18:14:55.616Z,1.45
2023-05-20T18:17:22.979Z,2.35
2023-05-20T18:19:50.306Z,2.30
2023-05-20T18:22:20.066Z,2.60
2023-05-20T18:24:47.242Z,2.30
2023-05-20T18:27:14.723Z,2.00
2023-05-20T18:29:41.956Z,2.28
2023-05-20T18:32:09.578Z,3.55
2023-05-20T18:34:37.046Z,2.35
2023-05-20T18:37:04.699Z,2.45
2023-05-20T18:39:31.877Z,3.20
2023-05-20T18:41:59.051Z,3.45
2023-05-20T18:44:26.265Z,3.15
2023-05-20T18:46:53.589Z,2.58
2023-05-20T18:49:20.763Z,2.78
2023-05-20T18:51:47.975Z,2.28
2023-05-20T18:54:15.178Z,3.78
2023-05-20T18:56:42.314Z,2.20
2023-05-20T18:59:09.479Z,2.85
2023-05-20T19:01:36.996Z,2.65
2023-05-20T19:04:04.424Z,3.45
2023-05-20T19:06:34.928Z,3.03
2023-05-20T19:09:02.359Z,3.28
2023-05-20T19:11:29.843Z,2.58
2023-05-20T19:13:58.420Z,2.03
2023-05-20T19:16:26.276Z,2.50
2023-05-20T19:18:53.544Z,1.85
2023-05-20T19:21:20.886Z,2.53
2023-05-20T19:23:49.005Z,1.90
2023-05-20T19:26:16.412Z,2.67
2023-05-20T19:28:43.676Z,2.30
2023-05-20T19:31:11.084Z,2.45
2023-05-20T19:33:40.146Z,3.65
2023-05-20T19:36:07.304Z,3.50
2023-05-20T19:38:34.528Z,4.00
2023-05-20T19:41:01.711Z,4.25
2023-05-20T19:43:30.532Z,3.30
2023-05-20T19:45:57.803Z,3.25
2023-05-20T19:48:25.123Z,2.30
2023-05-20T19:50:52.359Z,2.00
2023-05-20T19:53:20.965Z,2.40
2023-05-20T19:55:48.345Z,2.20
2023-05-20T19:58:16.105Z,2.47
2023-05-20T20:00:43.310Z,2.35
2023-05-20T20:03:12.262Z,1.98
2023-05-20T20:05:39.607Z,2.70
2023-05-20T20:08:06.842Z,2.03
2023-05-20T20:10:35.272Z,2.42
2023-05-20T20:13:02.508Z,2.45
2023-05-20T20:15:31.725Z,2.00
2023-05-20T20:17:59.414Z,2.33
2023-05-20T20:20:26.987Z,2.47
2023-05-20T20:22:54.256Z,2.50
2023-05-20T20:25:21.730Z,2.75
2023-05-20T20:27:50.132Z,2.17
2023-05-20T20:30:17.378Z,2.15
2023-05-20T20:32:44.648Z,2.70
2023-05-20T20:35:11.994Z,1.70
2023-05-20T20:37:39.314Z,1.95
2023-05-20T20:40:08.166Z,2.00
2023-05-20T20:42:35.305Z,1.80
2023-05-20T20:45:04.364Z,1.73
2023-05-20T20:47:31.551Z,1.80
2023-05-20T20:49:58.844Z,1.88
2023-05-20T20:52:26.464Z,2.63
2023-05-20T20:54:53.673Z,1.90
2023-05-20T20:57:22.024Z,2.10
2023-05-20T20:59:51.283Z,2.13
2023-05-20T21:02:19.726Z,1.80
2023-05-20T21:04:47.484Z,1.83
2023-05-20T21:07:18.181Z,2.38
2023-05-20T21:09:45.913Z,1.80
2023-05-20T21:12:13.180Z,1.77
2023-05-20T21:14:40.553Z,2.45
2023-05-20T21:17:07.933Z,1.70
2023-05-20T21:19:36.033Z,2.00
2023-05-20T21:22:03.312Z,1.73
2023-05-20T21:24:30.714Z,2.38
2023-05-20T21:26:57.914Z,1.90
2023-05-20T21:29:25.545Z,1.95
2023-05-20T21:31:52.683Z,2.25
2023-05-20T21:34:19.849Z,2.67
2023-05-20T21:36:47.012Z,2.10
2023-05-20T21:39:14.222Z,2.50
2023-05-20T21:41:41.488Z,2.25
2023-05-20T21:44:08.664Z,1.77
2023-05-20T21:46:35.959Z,1.65
2023-05-20T21:49:03.287Z,1.85
2023-05-20T21:51:31.544Z,1.92
2023-05-20T21:53:58.719Z,1.83
2023-05-20T21:56:26.690Z,2.28
2023-05-20T21:58:54.018Z,2.38
2023-05-20T22:01:21.578Z,2.50
2023-05-20T22:03:51.528Z,2.47
2023-05-20T22:06:21.483Z,2.35
2023-05-20T22:08:49.201Z,2.38
2023-05-20T22:11:17.170Z,1.83
2023-05-20T22:13:44.473Z,2.22
2023-05-20T22:16:11.914Z,2.55
2023-05-20T22:18:39.774Z,2.10
2023-05-20T22:21:07.163Z,2.03
2023-05-20T22:23:34.394Z,1.98
2023-05-20T22:26:01.743Z,2.58
2023-05-20T22:28:28.936Z,2.10
2023-05-20T22:30:56.257Z,2.08
2023-05-20T22:33:24.407Z,1.83
2023-05-20T22:35:53.721Z,1.63
2023-05-20T22:38:21.404Z,2.22
2023-05-20T22:40:48.695Z,1.80
2023-05-20T22:43:16.608Z,1.55
2023-05-20T22:45:44.163Z,2.15
2023-05-20T22:48:12.474Z,1.60
2023-05-20T22:50:40.469Z,2.28
2023-05-20T22:53:07.780Z,2.10
2023-05-20T22:55:35.298Z,1.80
2023-05-20T22:58:02.556Z,1.75
2023-05-20T23:00:29.749Z,2.05
2023-05-20T23:02:57.059Z,1.40
2023-05-20T23:05:24.276Z,2.00
2023-05-20T23:07:52.818Z,2.60
2023-05-20T23:10:20.519Z,2.03
2023-05-20T23:12:47.778Z,1.90
2023-05-20T23:15:15.084Z,2.05
2023-05-20T23:17:42.420Z,2.30
2023-05-20T23:20:11.281Z,1.92
2023-05-20T23:22:38.766Z,2.20
2023-05-20T23:25:06.456Z,2.30
2023-05-20T23:27:33.965Z,2.88
2023-05-20T23:30:01.216Z,2.47
2023-05-20T23:32:28.405Z,1.65
2023-05-20T23:34:55.714Z,2.10
2023-05-20T23:37:23.125Z,2.35
2023-05-20T23:39:50.330Z,2.10
2023-05-20T23:42:17.609Z,2.15
2023-05-20T23:44:44.816Z,2.90
2023-05-20T23:47:13.699Z,2.13
2023-05-20T23:49:41.655Z,2.30
2023-05-20T23:52:08.949Z,2.10
2023-05-20T23:54:36.433Z,2.00
2023-05-20T23:57:03.789Z,2.58
2023-05-20T23:59:31.093Z,3.13
